sensor_id;sensor_type;location;lat;lon;timestamp;P1;durP1;ratioP1;P2;durP2;ratioP2
5054;SDS011;13829;48.990;8.346;2023-11-21T00:02:20;8.10;;;2.40;;
5054;SDS011;13829;48.990;8.346;2023-11-21T00:04:47;6.57;;;2.27;;
5054;SDS011;13829;48.990;8.346;2023-11-21T00:07:14;7.17;;;2.23;;
5054;SDS011;13829;48.990;8.346;2023-11-21T00:09:41;5.83;;;1.63;;
5054;SDS011;13829;48.990;8.346;2023-11-21T00:12:08;7.23;;;2.23;;
5054;SDS011;13829;48.990;8.346;2023-11-21T00:14:37;8.47;;;2.93;;
5054;SDS011;13829;48.990;8.346;2023-11-21T00:17:04;6.30;;;1.80;;
5054;SDS011;13829;48.990;8.346;2023-11-21T00:19:31;7.23;;;2.00;;
5054;SDS011;13829;48.990;8.346;2023-11-21T00:21:58;5.63;;;1.97;;
5054;SDS011;13829;48.990;8.346;2023-11-21T00:24:25;7.33;;;2.33;;
5054;SDS011;13829;48.990;8.346;2023-11-21T00:26:52;4.93;;;2.00;;
5054;SDS011;13829;48.990;8.346;2023-11-21T00:29:19;3.60;;;1.67;;
5054;SDS011;13829;48.990;8.346;2023-11-21T00:31:47;7.27;;;1.90;;
5054;SDS011;13829;48.990;8.346;2023-11-21T00:34:14;6.13;;;2.10;;
5054;SDS011;13829;48.990;8.346;2023-11-21T00:36:41;4.50;;;1.90;;
5054;SDS011;13829;48.990;8.346;2023-11-21T00:39:08;7.67;;;2.07;;
5054;SDS011;13829;48.990;8.346;2023-11-21T00:41:36;6.27;;;1.83;;
5054;SDS011;13829;48.990;8.346;2023-11-21T00:44:03;9.20;;;2.37;;
5054;SDS011;13829;48.990;8.346;2023-11-21T00:46:31;7.87;;;2.20;;
5054;SDS011;13829;48.990;8.346;2023-11-21T00:48:59;2.97;;;1.90;;
5054;SDS011;13829;48.990;8.346;2023-11-21T00:51:29;5.23;;;1.80;;
5054;SDS011;13829;48.990;8.346;2023-11-21T00:53:56;9.27;;;2.10;;
5054;SDS011;13829;48.990;8.346;2023-11-21T00:56:23;6.13;;;2.13;;
5054;SDS011;13829;48.990;8.346;2023-11-21T00:58:50;4.00;;;2.17;;
5054;SDS011;13829;48.990;8.346;2023-11-21T01:01:17;4.07;;;1.97;;
5054;SDS011;13829;48.990;8.346;2023-11-21T01:03:45;5.67;;;2.07;;
5054;SDS011;13829;48.990;8.346;2023-11-21T01:06:15;3.13;;;1.80;;
5054;SDS011;13829;48.990;8.346;2023-11-21T01:08:43;5.20;;;1.90;;
5054;SDS011;13829;48.990;8.346;2023-11-21T01:11:10;4.70;;;1.70;;
5054;SDS011;13829;48.990;8.346;2023-11-21T01:13:38;6.47;;;1.90;;
5054;SDS011;13829;48.990;8.346;2023-11-21T01:16:05;5.63;;;2.27;;
5054;SDS011;13829;48.990;8.346;2023-11-21T01:18:34;4.97;;;1.53;;
5054;SDS011;13829;48.990;8.346;2023-11-21T01:21:01;4.67;;;1.83;;
5054;SDS011;13829;48.990;8.346;2023-11-21T01:23:30;5.80;;;2.10;;
5054;SDS011;13829;48.990;8.346;2023-11-21T01:25:57;3.20;;;1.50;;
5054;SDS011;13829;48.990;8.346;2023-11-21T01:28:24;4.80;;;1.80;;
5054;SDS011;13829;48.990;8.346;2023-11-21T01:30:51;6.67;;;2.20;;
5054;SDS011;13829;48.990;8.346;2023-11-21T01:33:21;6.33;;;1.83;;
5054;SDS011;13829;48.990;8.346;2023-11-21T01:35:50;7.30;;;2.70;;
5054;SDS011;13829;48.990;8.346;2023-11-21T01:38:19;4.03;;;1.77;;
5054;SDS011;13829;48.990;8.346;2023-11-21T01:40:48;4.63;;;1.93;;
5054;SDS011;13829;48.990;8.346;2023-11-21T01:43:15;5.37;;;2.00;;
5054;SDS011;13829;48.990;8.346;2023-11-21T01:45:42;5.50;;;1.70;;
5054;SDS011;13829;48.990;8.346;2023-11-21T01:48:10;6.27;;;1.77;;
5054;SDS011;13829;48.990;8.346;2023-11-21T01:50:39;3.20;;;1.70;;
5054;SDS011;13829;48.990;8.346;2023-11-21T01:53:06;3.67;;;1.73;;
5054;SDS011;13829;48.990;8.346;2023-11-21T01:55:33;3.67;;;1.57;;
5054;SDS011;13829;48.990;8.346;2023-11-21T01:58:02;3.80;;;1.40;;
5054;SDS011;13829;48.990;8.346;2023-11-21T02:00:30;5.43;;;1.73;;
5054;SDS011;13829;48.990;8.346;2023-11-21T02:02:58;6.10;;;1.57;;
5054;SDS011;13829;48.990;8.346;2023-11-21T02:05:25;8.77;;;1.60;;
5054;SDS011;13829;48.990;8.346;2023-11-21T02:07:52;5.13;;;1.57;;
5054;SDS011;13829;48.990;8.346;2023-11-21T02:10:19;7.00;;;2.03;;
5054;SDS011;13829;48.990;8.346;2023-11-21T02:12:47;5.30;;;1.70;;
5054;SDS011;13829;48.990;8.346;2023-11-21T02:15:17;4.67;;;2.23;;
5054;SDS011;13829;48.990;8.346;2023-11-21T02:17:46;5.30;;;1.90;;
5054;SDS011;13829;48.990;8.346;2023-11-21T02:20:16;5.57;;;2.00;;
5054;SDS011;13829;48.990;8.346;2023-11-21T02:22:48;2.80;;;1.77;;
5054;SDS011;13829;48.990;8.346;2023-11-21T02:25:22;3.03;;;1.73;;
5054;SDS011;13829;48.990;8.346;2023-11-21T02:27:50;3.70;;;2.17;;
5054;SDS011;13829;48.990;8.346;2023-11-21T02:30:17;3.83;;;1.80;;
5054;SDS011;13829;48.990;8.346;2023-11-21T02:32:44;5.53;;;1.70;;
5054;SDS011;13829;48.990;8.346;2023-11-21T02:35:11;4.47;;;1.90;;
5054;SDS011;13829;48.990;8.346;2023-11-21T02:37:38;2.70;;;1.40;;
5054;SDS011;13829;48.990;8.346;2023-11-21T02:40:08;4.40;;;1.70;;
5054;SDS011;13829;48.990;8.346;2023-11-21T02:42:37;5.07;;;2.03;;
5054;SDS011;13829;48.990;8.346;2023-11-21T02:45:05;4.23;;;1.57;;
5054;SDS011;13829;48.990;8.346;2023-11-21T02:47:34;5.50;;;1.40;;
5054;SDS011;13829;48.990;8.346;2023-11-21T02:50:01;3.90;;;1.73;;
5054;SDS011;13829;48.990;8.346;2023-11-21T02:52:28;4.13;;;1.47;;
5054;SDS011;13829;48.990;8.346;2023-11-21T02:54:58;8.43;;;1.70;;
5054;SDS011;13829;48.990;8.346;2023-11-21T02:57:26;3.33;;;1.60;;
5054;SDS011;13829;48.990;8.346;2023-11-21T02:59:53;4.63;;;1.57;;
5054;SDS011;13829;48.990;8.346;2023-11-21T03:02:20;1.73;;;1.20;;
5054;SDS011;13829;48.990;8.346;2023-11-21T03:04:48;6.53;;;1.63;;
5054;SDS011;13829;48.990;8.346;2023-11-21T03:07:15;2.23;;;1.20;;
5054;SDS011;13829;48.990;8.346;2023-11-21T03:09:42;3.80;;;1.50;;
5054;SDS011;13829;48.990;8.346;2023-11-21T03:12:09;3.33;;;1.37;;
5054;SDS011;13829;48.990;8.346;2023-11-21T03:14:38;4.03;;;1.50;;
5054;SDS011;13829;48.990;8.346;2023-11-21T03:17:05;7.30;;;1.57;;
5054;SDS011;13829;48.990;8.346;2023-11-21T03:19:32;3.43;;;1.57;;
5054;SDS011;13829;48.990;8.346;2023-11-21T03:21:59;5.93;;;1.97;;
5054;SDS011;13829;48.990;8.346;2023-11-21T03:24:26;3.23;;;1.63;;
5054;SDS011;13829;48.990;8.346;2023-11-21T03:26:53;6.70;;;1.60;;
5054;SDS011;13829;48.990;8.346;2023-11-21T03:29:20;4.67;;;1.60;;
5054;SDS011;13829;48.990;8.346;2023-11-21T03:31:48;4.43;;;1.43;;
5054;SDS011;13829;48.990;8.346;2023-11-21T03:34:19;6.30;;;1.97;;
5054;SDS011;13829;48.990;8.346;2023-11-21T03:36:50;4.00;;;1.80;;
5054;SDS011;13829;48.990;8.346;2023-11-21T03:39:18;3.23;;;1.40;;
5054;SDS011;13829;48.990;8.346;2023-11-21T03:41:47;3.07;;;1.57;;
5054;SDS011;13829;48.990;8.346;2023-11-21T03:44:14;3.90;;;1.70;;
5054;SDS011;13829;48.990;8.346;2023-11-21T03:46:42;2.53;;;1.57;;
5054;SDS011;13829;48.990;8.346;2023-11-21T03:49:11;4.27;;;1.60;;
5054;SDS011;13829;48.990;8.346;2023-11-21T03:51:38;4.63;;;1.60;;
5054;SDS011;13829;48.990;8.346;2023-11-21T03:54:05;4.67;;;1.60;;
5054;SDS011;13829;48.990;8.346;2023-11-21T03:56:32;5.47;;;1.50;;
5054;SDS011;13829;48.990;8.346;2023-11-21T03:58:59;5.13;;;1.60;;
5054;SDS011;13829;48.990;8.346;2023-11-21T04:01:26;5.93;;;1.77;;
5054;SDS011;13829;48.990;8.346;2023-11-21T04:03:53;5.17;;;1.90;;
5054;SDS011;13829;48.990;8.346;2023-11-21T04:06:21;6.53;;;2.17;;
5054;SDS011;13829;48.990;8.346;2023-11-21T04:08:48;3.20;;;1.33;;
5054;SDS011;13829;48.990;8.346;2023-11-21T04:11:15;6.43;;;1.57;;
5054;SDS011;13829;48.990;8.346;2023-11-21T04:13:42;6.93;;;1.93;;
5054;SDS011;13829;48.990;8.346;2023-11-21T04:16:09;2.77;;;1.60;;
5054;SDS011;13829;48.990;8.346;2023-11-21T04:18:36;2.70;;;1.50;;
5054;SDS011;13829;48.990;8.346;2023-11-21T04:21:04;5.27;;;1.67;;
5054;SDS011;13829;48.990;8.346;2023-11-21T04:23:34;6.03;;;2.40;;
5054;SDS011;13829;48.990;8.346;2023-11-21T04:26:02;3.63;;;1.90;;
5054;SDS011;13829;48.990;8.346;2023-11-21T04:28:29;6.50;;;2.23;;
5054;SDS011;13829;48.990;8.346;2023-11-21T04:30:56;3.23;;;1.73;;
5054;SDS011;13829;48.990;8.346;2023-11-21T04:33:22;3.73;;;1.80;;
5054;SDS011;13829;48.990;8.346;2023-11-21T04:35:50;4.20;;;1.70;;
5054;SDS011;13829;48.990;8.346;2023-11-21T04:38:17;3.23;;;1.83;;
5054;SDS011;13829;48.990;8.346;2023-11-21T04:40:46;3.47;;;1.60;;
5054;SDS011;13829;48.990;8.346;2023-11-21T04:43:13;3.87;;;1.67;;
5054;SDS011;13829;48.990;8.346;2023-11-21T04:45:40;3.77;;;1.53;;
5054;SDS011;13829;48.990;8.346;2023-11-21T04:48:07;4.20;;;2.00;;
5054;SDS011;13829;48.990;8.346;2023-11-21T04:50:35;4.07;;;1.87;;
5054;SDS011;13829;48.990;8.346;2023-11-21T04:53:01;3.30;;;1.67;;
5054;SDS011;13829;48.990;8.346;2023-11-21T04:55:28;4.53;;;1.50;;
5054;SDS011;13829;48.990;8.346;2023-11-21T04:57:57;7.87;;;2.20;;
5054;SDS011;13829;48.990;8.346;2023-11-21T05:00:23;5.77;;;2.20;;
5054;SDS011;13829;48.990;8.346;2023-11-21T05:02:51;2.73;;;1.60;;
5054;SDS011;13829;48.990;8.346;2023-11-21T05:05:18;4.13;;;1.87;;
5054;SDS011;13829;48.990;8.346;2023-11-21T05:07:45;4.83;;;2.07;;
5054;SDS011;13829;48.990;8.346;2023-11-21T05:10:14;4.17;;;1.83;;
5054;SDS011;13829;48.990;8.346;2023-11-21T05:12:41;5.90;;;1.63;;
5054;SDS011;13829;48.990;8.346;2023-11-21T05:15:10;4.43;;;2.13;;
5054;SDS011;13829;48.990;8.346;2023-11-21T05:17:42;5.47;;;2.23;;
5054;SDS011;13829;48.990;8.346;2023-11-21T05:20:10;3.93;;;1.97;;
5054;SDS011;13829;48.990;8.346;2023-11-21T05:22:42;4.90;;;2.27;;
5054;SDS011;13829;48.990;8.346;2023-11-21T05:25:10;4.00;;;2.00;;
5054;SDS011;13829;48.990;8.346;2023-11-21T05:27:37;4.37;;;2.40;;
5054;SDS011;13829;48.990;8.346;2023-11-21T05:30:05;2.80;;;2.00;;
5054;SDS011;13829;48.990;8.346;2023-11-21T05:32:35;5.13;;;2.47;;
5054;SDS011;13829;48.990;8.346;2023-11-21T05:35:03;6.27;;;2.60;;
5054;SDS011;13829;48.990;8.346;2023-11-21T05:37:34;5.80;;;2.40;;
5054;SDS011;13829;48.990;8.346;2023-11-21T05:40:04;3.77;;;2.60;;
5054;SDS011;13829;48.990;8.346;2023-11-21T05:42:33;4.73;;;2.33;;
5054;SDS011;13829;48.990;8.346;2023-11-21T05:45:01;5.27;;;2.60;;
5054;SDS011;13829;48.990;8.346;2023-11-21T05:47:37;4.83;;;2.87;;
5054;SDS011;13829;48.990;8.346;2023-11-21T05:50:06;4.80;;;2.80;;
5054;SDS011;13829;48.990;8.346;2023-11-21T05:52:37;3.90;;;2.47;;
5054;SDS011;13829;48.990;8.346;2023-11-21T05:55:05;3.67;;;2.67;;
5054;SDS011;13829;48.990;8.346;2023-11-21T05:57:33;3.43;;;2.80;;
5054;SDS011;13829;48.990;8.346;2023-11-21T06:00:02;4.93;;;2.70;;
5054;SDS011;13829;48.990;8.346;2023-11-21T06:02:38;4.53;;;2.40;;
5054;SDS011;13829;48.990;8.346;2023-11-21T06:05:06;3.17;;;2.20;;
5054;SDS011;13829;48.990;8.346;2023-11-21T06:07:34;3.17;;;2.10;;
5054;SDS011;13829;48.990;8.346;2023-11-21T06:10:01;2.43;;;2.03;;
5054;SDS011;13829;48.990;8.346;2023-11-21T06:12:31;2.90;;;1.93;;
5054;SDS011;13829;48.990;8.346;2023-11-21T06:15:00;3.00;;;2.20;;
5054;SDS011;13829;48.990;8.346;2023-11-21T06:17:30;3.13;;;2.20;;
5054;SDS011;13829;48.990;8.346;2023-11-21T06:19:58;3.63;;;2.20;;
5054;SDS011;13829;48.990;8.346;2023-11-21T06:22:25;5.47;;;2.57;;
5054;SDS011;13829;48.990;8.346;2023-11-21T06:24:52;3.13;;;2.30;;
5054;SDS011;13829;48.990;8.346;2023-11-21T06:27:19;3.53;;;2.00;;
5054;SDS011;13829;48.990;8.346;2023-11-21T06:29:46;4.20;;;1.70;;
5054;SDS011;13829;48.990;8.346;2023-11-21T06:32:13;2.70;;;2.10;;
5054;SDS011;13829;48.990;8.346;2023-11-21T06:34:41;4.00;;;2.10;;
5054;SDS011;13829;48.990;8.346;2023-11-21T06:37:09;3.27;;;2.67;;
5054;SDS011;13829;48.990;8.346;2023-11-21T06:39:37;5.43;;;2.77;;
5054;SDS011;13829;48.990;8.346;2023-11-21T06:42:04;4.33;;;2.77;;
5054;SDS011;13829;48.990;8.346;2023-11-21T06:44:32;5.87;;;3.00;;
5054;SDS011;13829;48.990;8.346;2023-11-21T06:47:00;3.67;;;2.87;;
5054;SDS011;13829;48.990;8.346;2023-11-21T06:49:27;4.17;;;3.17;;
5054;SDS011;13829;48.990;8.346;2023-11-21T06:51:54;5.90;;;3.13;;
5054;SDS011;13829;48.990;8.346;2023-11-21T06:54:23;6.00;;;4.27;;
5054;SDS011;13829;48.990;8.346;2023-11-21T06:56:49;5.23;;;4.07;;
5054;SDS011;13829;48.990;8.346;2023-11-21T06:59:18;5.83;;;4.07;;
5054;SDS011;13829;48.990;8.346;2023-11-21T07:01:45;5.83;;;4.23;;
5054;SDS011;13829;48.990;8.346;2023-11-21T07:04:12;6.30;;;4.03;;
5054;SDS011;13829;48.990;8.346;2023-11-21T07:06:39;7.33;;;4.33;;
5054;SDS011;13829;48.990;8.346;2023-11-21T07:09:06;4.97;;;4.40;;
5054;SDS011;13829;48.990;8.346;2023-11-21T07:11:35;5.33;;;3.93;;
5054;SDS011;13829;48.990;8.346;2023-11-21T07:14:03;7.33;;;4.23;;
5054;SDS011;13829;48.990;8.346;2023-11-21T07:16:32;7.30;;;4.40;;
5054;SDS011;13829;48.990;8.346;2023-11-21T07:19:02;7.03;;;4.33;;
5054;SDS011;13829;48.990;8.346;2023-11-21T07:21:31;7.83;;;4.67;;
5054;SDS011;13829;48.990;8.346;2023-11-21T07:23:58;6.57;;;4.47;;
5054;SDS011;13829;48.990;8.346;2023-11-21T07:26:26;5.87;;;4.30;;
5054;SDS011;13829;48.990;8.346;2023-11-21T07:28:54;6.23;;;4.27;;
5054;SDS011;13829;48.990;8.346;2023-11-21T07:31:21;7.20;;;4.63;;
5054;SDS011;13829;48.990;8.346;2023-11-21T07:33:50;5.63;;;4.20;;
5054;SDS011;13829;48.990;8.346;2023-11-21T07:36:17;7.43;;;4.30;;
5054;SDS011;13829;48.990;8.346;2023-11-21T07:38:46;6.73;;;4.20;;
5054;SDS011;13829;48.990;8.346;2023-11-21T07:41:13;5.83;;;4.00;;
5054;SDS011;13829;48.990;8.346;2023-11-21T07:43:41;5.33;;;4.10;;
5054;SDS011;13829;48.990;8.346;2023-11-21T07:46:09;5.83;;;3.87;;
5054;SDS011;13829;48.990;8.346;2023-11-21T07:48:37;6.13;;;4.13;;
5054;SDS011;13829;48.990;8.346;2023-11-21T07:51:04;6.23;;;4.73;;
5054;SDS011;13829;48.990;8.346;2023-11-21T07:53:32;7.87;;;4.50;;
5054;SDS011;13829;48.990;8.346;2023-11-21T07:56:02;6.80;;;4.83;;
5054;SDS011;13829;48.990;8.346;2023-11-21T07:58:30;8.03;;;6.83;;
5054;SDS011;13829;48.990;8.346;2023-11-21T08:00:58;9.57;;;6.70;;
5054;SDS011;13829;48.990;8.346;2023-11-21T08:03:27;6.63;;;4.30;;
5054;SDS011;13829;48.990;8.346;2023-11-21T08:05:55;4.10;;;3.70;;
5054;SDS011;13829;48.990;8.346;2023-11-21T08:08:22;4.63;;;4.00;;
5054;SDS011;13829;48.990;8.346;2023-11-21T08:10:49;5.40;;;3.90;;
5054;SDS011;13829;48.990;8.346;2023-11-21T08:13:21;5.53;;;3.93;;
5054;SDS011;13829;48.990;8.346;2023-11-21T08:15:48;4.43;;;3.33;;
5054;SDS011;13829;48.990;8.346;2023-11-21T08:18:16;3.70;;;3.10;;
5054;SDS011;13829;48.990;8.346;2023-11-21T08:20:44;5.57;;;3.27;;
5054;SDS011;13829;48.990;8.346;2023-11-21T08:23:13;4.80;;;3.40;;
5054;SDS011;13829;48.990;8.346;2023-11-21T08:25:41;6.50;;;3.90;;
5054;SDS011;13829;48.990;8.346;2023-11-21T08:28:09;7.43;;;3.43;;
5054;SDS011;13829;48.990;8.346;2023-11-21T08:30:37;4.63;;;3.33;;
5054;SDS011;13829;48.990;8.346;2023-11-21T08:33:04;4.07;;;3.37;;
5054;SDS011;13829;48.990;8.346;2023-11-21T08:35:31;4.97;;;4.10;;
5054;SDS011;13829;48.990;8.346;2023-11-21T08:38:00;6.13;;;4.20;;
5054;SDS011;13829;48.990;8.346;2023-11-21T08:40:27;7.73;;;5.20;;
5054;SDS011;13829;48.990;8.346;2023-11-21T08:42:54;7.17;;;4.60;;
5054;SDS011;13829;48.990;8.346;2023-11-21T08:45:21;6.73;;;5.33;;
5054;SDS011;13829;48.990;8.346;2023-11-21T08:47:48;5.40;;;4.67;;
5054;SDS011;13829;48.990;8.346;2023-11-21T08:50:15;8.40;;;5.73;;
5054;SDS011;13829;48.990;8.346;2023-11-21T08:52:42;7.23;;;5.17;;
5054;SDS011;13829;48.990;8.346;2023-11-21T08:55:13;8.27;;;6.03;;
5054;SDS011;13829;48.990;8.346;2023-11-21T08:57:41;6.97;;;6.00;;
5054;SDS011;13829;48.990;8.346;2023-11-21T09:00:11;8.17;;;5.77;;
5054;SDS011;13829;48.990;8.346;2023-11-21T09:02:42;12.90;;;6.67;;
5054;SDS011;13829;48.990;8.346;2023-11-21T09:05:09;9.90;;;5.90;;
5054;SDS011;13829;48.990;8.346;2023-11-21T09:07:38;8.57;;;6.50;;
5054;SDS011;13829;48.990;8.346;2023-11-21T09:10:07;11.33;;;8.63;;
5054;SDS011;13829;48.990;8.346;2023-11-21T09:12:37;6.93;;;5.97;;
5054;SDS011;13829;48.990;8.346;2023-11-21T09:15:04;13.53;;;6.13;;
5054;SDS011;13829;48.990;8.346;2023-11-21T09:17:34;17.30;;;14.33;;
5054;SDS011;13829;48.990;8.346;2023-11-21T09:20:02;14.00;;;9.43;;
5054;SDS011;13829;48.990;8.346;2023-11-21T09:22:30;8.00;;;5.30;;
5054;SDS011;13829;48.990;8.346;2023-11-21T09:24:57;10.00;;;5.97;;
5054;SDS011;13829;48.990;8.346;2023-11-21T09:27:25;6.63;;;5.30;;
5054;SDS011;13829;48.990;8.346;2023-11-21T09:29:53;7.47;;;4.93;;
5054;SDS011;13829;48.990;8.346;2023-11-21T09:32:20;6.37;;;5.37;;
5054;SDS011;13829;48.990;8.346;2023-11-21T09:34:47;7.23;;;5.97;;
5054;SDS011;13829;48.990;8.346;2023-11-21T09:37:15;7.83;;;6.30;;
5054;SDS011;13829;48.990;8.346;2023-11-21T09:39:42;10.07;;;6.37;;
5054;SDS011;13829;48.990;8.346;2023-11-21T09:42:10;6.90;;;5.97;;
5054;SDS011;13829;48.990;8.346;2023-11-21T09:44:44;8.63;;;6.53;;
5054;SDS011;13829;48.990;8.346;2023-11-21T09:47:19;9.70;;;6.70;;
5054;SDS011;13829;48.990;8.346;2023-11-21T09:49:48;9.60;;;7.47;;
5054;SDS011;13829;48.990;8.346;2023-11-21T09:52:17;7.63;;;6.37;;
5054;SDS011;13829;48.990;8.346;2023-11-21T09:54:51;8.73;;;6.47;;
5054;SDS011;13829;48.990;8.346;2023-11-21T09:57:22;9.07;;;6.80;;
5054;SDS011;13829;48.990;8.346;2023-11-21T09:59:51;9.80;;;7.53;;
5054;SDS011;13829;48.990;8.346;2023-11-21T10:02:23;12.17;;;8.30;;
5054;SDS011;13829;48.990;8.346;2023-11-21T10:04:53;10.10;;;7.60;;
5054;SDS011;13829;48.990;8.346;2023-11-21T10:07:21;6.53;;;5.70;;
5054;SDS011;13829;48.990;8.346;2023-11-21T10:09:50;8.73;;;7.30;;
5054;SDS011;13829;48.990;8.346;2023-11-21T10:12:19;7.77;;;6.17;;
5054;SDS011;13829;48.990;8.346;2023-11-21T10:14:47;8.00;;;7.00;;
5054;SDS011;13829;48.990;8.346;2023-11-21T10:17:17;6.43;;;5.20;;
5054;SDS011;13829;48.990;8.346;2023-11-21T10:19:47;5.97;;;4.87;;
5054;SDS011;13829;48.990;8.346;2023-11-21T10:22:14;5.33;;;4.63;;
5054;SDS011;13829;48.990;8.346;2023-11-21T10:24:42;7.27;;;4.27;;
5054;SDS011;13829;48.990;8.346;2023-11-21T10:27:09;5.23;;;3.87;;
5054;SDS011;13829;48.990;8.346;2023-11-21T10:29:37;6.90;;;5.00;;
5054;SDS011;13829;48.990;8.346;2023-11-21T10:32:06;6.13;;;5.20;;
5054;SDS011;13829;48.990;8.346;2023-11-21T10:34:34;6.10;;;5.50;;
5054;SDS011;13829;48.990;8.346;2023-11-21T10:37:11;6.63;;;4.80;;
5054;SDS011;13829;48.990;8.346;2023-11-21T10:39:38;4.10;;;3.70;;
5054;SDS011;13829;48.990;8.346;2023-11-21T10:42:08;6.73;;;4.90;;
5054;SDS011;13829;48.990;8.346;2023-11-21T10:44:35;6.43;;;5.07;;
5054;SDS011;13829;48.990;8.346;2023-11-21T10:47:02;10.17;;;5.37;;
5054;SDS011;13829;48.990;8.346;2023-11-21T10:49:30;7.57;;;4.43;;
5054;SDS011;13829;48.990;8.346;2023-11-21T10:51:57;5.07;;;4.37;;
5054;SDS011;13829;48.990;8.346;2023-11-21T10:54:25;3.60;;;3.27;;
5054;SDS011;13829;48.990;8.346;2023-11-21T10:56:53;4.70;;;4.17;;
5054;SDS011;13829;48.990;8.346;2023-11-21T10:59:25;4.03;;;3.63;;
5054;SDS011;13829;48.990;8.346;2023-11-21T11:01:57;5.83;;;4.03;;
5054;SDS011;13829;48.990;8.346;2023-11-21T11:04:27;4.60;;;3.90;;
5054;SDS011;13829;48.990;8.346;2023-11-21T11:06:56;5.57;;;4.53;;
5054;SDS011;13829;48.990;8.346;2023-11-21T11:09:27;5.13;;;4.63;;
5054;SDS011;13829;48.990;8.346;2023-11-21T11:11:57;5.67;;;4.77;;
5054;SDS011;13829;48.990;8.346;2023-11-21T11:14:24;5.40;;;4.90;;
5054;SDS011;13829;48.990;8.346;2023-11-21T11:16:53;6.20;;;5.50;;
5054;SDS011;13829;48.990;8.346;2023-11-21T11:19:21;6.93;;;5.27;;
5054;SDS011;13829;48.990;8.346;2023-11-21T11:21:50;6.03;;;4.70;;
5054;SDS011;13829;48.990;8.346;2023-11-21T11:27:40;5.20;;;4.70;;
5054;SDS011;13829;48.990;8.346;2023-11-21T11:30:26;4.70;;;4.20;;
5054;SDS011;13829;48.990;8.346;2023-11-21T11:33:09;7.00;;;4.83;;
5054;SDS011;13829;48.990;8.346;2023-11-21T11:35:51;4.43;;;4.03;;
5054;SDS011;13829;48.990;8.346;2023-11-21T11:38:28;4.50;;;4.10;;
5054;SDS011;13829;48.990;8.346;2023-11-21T11:41:02;4.93;;;4.43;;
5054;SDS011;13829;48.990;8.346;2023-11-21T11:43:31;6.13;;;4.50;;
5054;SDS011;13829;48.990;8.346;2023-11-21T11:46:08;5.17;;;4.60;;
5054;SDS011;13829;48.990;8.346;2023-11-21T11:48:38;4.40;;;4.00;;
5054;SDS011;13829;48.990;8.346;2023-11-21T11:51:06;6.03;;;4.60;;
5054;SDS011;13829;48.990;8.346;2023-11-21T11:53:39;5.27;;;4.70;;
5054;SDS011;13829;48.990;8.346;2023-11-21T11:56:27;6.60;;;5.67;;
5054;SDS011;13829;48.990;8.346;2023-11-21T11:58:59;5.90;;;5.13;;
5054;SDS011;13829;48.990;8.346;2023-11-21T12:01:29;6.30;;;4.80;;
5054;SDS011;13829;48.990;8.346;2023-11-21T12:06:59;5.80;;;4.73;;
5054;SDS011;13829;48.990;8.346;2023-11-21T12:09:28;7.13;;;5.10;;
5054;SDS011;13829;48.990;8.346;2023-11-21T12:11:59;6.40;;;5.50;;
5054;SDS011;13829;48.990;8.346;2023-11-21T12:14:26;6.93;;;5.77;;
5054;SDS011;13829;48.990;8.346;2023-11-21T12:16:54;6.70;;;6.00;;
5054;SDS011;13829;48.990;8.346;2023-11-21T12:19:21;7.90;;;6.27;;
5054;SDS011;13829;48.990;8.346;2023-11-21T12:21:49;6.43;;;5.83;;
5054;SDS011;13829;48.990;8.346;2023-11-21T12:24:17;11.67;;;8.50;;
5054;SDS011;13829;48.990;8.346;2023-11-21T12:26:44;17.27;;;10.43;;
5054;SDS011;13829;48.990;8.346;2023-11-21T12:29:12;6.77;;;5.13;;
5054;SDS011;13829;48.990;8.346;2023-11-21T12:31:39;7.33;;;5.60;;
5054;SDS011;13829;48.990;8.346;2023-11-21T12:34:06;8.17;;;5.93;;
5054;SDS011;13829;48.990;8.346;2023-11-21T12:36:36;6.43;;;5.47;;
5054;SDS011;13829;48.990;8.346;2023-11-21T12:39:04;8.60;;;6.20;;
5054;SDS011;13829;48.990;8.346;2023-11-21T12:41:31;9.77;;;7.43;;
5054;SDS011;13829;48.990;8.346;2023-11-21T12:43:58;6.47;;;5.57;;
5054;SDS011;13829;48.990;8.346;2023-11-21T12:46:27;5.23;;;4.70;;
5054;SDS011;13829;48.990;8.346;2023-11-21T12:48:56;6.73;;;5.40;;
5054;SDS011;13829;48.990;8.346;2023-11-21T12:51:23;5.73;;;5.17;;
5054;SDS011;13829;48.990;8.346;2023-11-21T12:53:51;8.67;;;6.77;;
5054;SDS011;13829;48.990;8.346;2023-11-21T12:56:19;7.13;;;6.37;;
5054;SDS011;13829;48.990;8.346;2023-11-21T12:58:49;7.67;;;6.87;;
5054;SDS011;13829;48.990;8.346;2023-11-21T13:01:19;8.47;;;6.70;;
5054;SDS011;13829;48.990;8.346;2023-11-21T13:03:50;7.37;;;6.00;;
5054;SDS011;13829;48.990;8.346;2023-11-21T13:06:17;7.23;;;5.50;;
5054;SDS011;13829;48.990;8.346;2023-11-21T13:08:49;6.30;;;5.03;;
5054;SDS011;13829;48.990;8.346;2023-11-21T13:11:17;7.00;;;5.20;;
5054;SDS011;13829;48.990;8.346;2023-11-21T13:13:44;5.87;;;4.70;;
5054;SDS011;13829;48.990;8.346;2023-11-21T13:16:11;6.93;;;5.70;;
5054;SDS011;13829;48.990;8.346;2023-11-21T13:18:40;6.90;;;4.83;;
5054;SDS011;13829;48.990;8.346;2023-11-21T13:21:09;6.10;;;5.37;;
5054;SDS011;13829;48.990;8.346;2023-11-21T13:23:38;5.80;;;5.00;;
5054;SDS011;13829;48.990;8.346;2023-11-21T13:26:06;6.17;;;4.20;;
5054;SDS011;13829;48.990;8.346;2023-11-21T13:28:34;6.73;;;4.70;;
5054;SDS011;13829;48.990;8.346;2023-11-21T13:31:03;6.53;;;5.70;;
5054;SDS011;13829;48.990;8.346;2023-11-21T13:33:45;5.90;;;4.90;;
5054;SDS011;13829;48.990;8.346;2023-11-21T13:36:22;6.70;;;5.27;;
5054;SDS011;13829;48.990;8.346;2023-11-21T13:38:49;8.43;;;5.70;;
5054;SDS011;13829;48.990;8.346;2023-11-21T13:41:18;7.40;;;6.37;;
5054;SDS011;13829;48.990;8.346;2023-11-21T13:43:47;5.70;;;5.20;;
5054;SDS011;13829;48.990;8.346;2023-11-21T13:46:22;6.43;;;5.77;;
5054;SDS011;13829;48.990;8.346;2023-11-21T13:48:49;6.23;;;5.40;;
5054;SDS011;13829;48.990;8.346;2023-11-21T13:51:22;6.53;;;5.83;;
5054;SDS011;13829;48.990;8.346;2023-11-21T13:53:56;5.43;;;4.93;;
5054;SDS011;13829;48.990;8.346;2023-11-21T13:56:24;12.50;;;5.67;;
5054;SDS011;13829;48.990;8.346;2023-11-21T13:58:53;7.93;;;6.47;;
5054;SDS011;13829;48.990;8.346;2023-11-21T14:01:21;6.87;;;5.63;;
5054;SDS011;13829;48.990;8.346;2023-11-21T14:04:10;8.10;;;6.47;;
5054;SDS011;13829;48.990;8.346;2023-11-21T14:06:46;5.53;;;4.50;;
5054;SDS011;13829;48.990;8.346;2023-11-21T14:09:17;5.83;;;4.57;;
5054;SDS011;13829;48.990;8.346;2023-11-21T14:11:50;5.70;;;4.47;;
5054;SDS011;13829;48.990;8.346;2023-11-21T14:14:18;7.03;;;4.50;;
5054;SDS011;13829;48.990;8.346;2023-11-21T14:16:47;5.77;;;4.63;;
5054;SDS011;13829;48.990;8.346;2023-11-21T14:19:14;5.73;;;4.77;;
5054;SDS011;13829;48.990;8.346;2023-11-21T14:21:41;5.43;;;4.13;;
5054;SDS011;13829;48.990;8.346;2023-11-21T14:24:11;5.90;;;4.77;;
5054;SDS011;13829;48.990;8.346;2023-11-21T14:26:39;5.83;;;4.93;;
5054;SDS011;13829;48.990;8.346;2023-11-21T14:29:08;6.73;;;5.63;;
5054;SDS011;13829;48.990;8.346;2023-11-21T14:31:37;5.53;;;5.03;;
5054;SDS011;13829;48.990;8.346;2023-11-21T14:34:04;8.10;;;5.53;;
5054;SDS011;13829;48.990;8.346;2023-11-21T14:36:32;6.67;;;5.20;;
5054;SDS011;13829;48.990;8.346;2023-11-21T14:38:59;6.90;;;6.23;;
5054;SDS011;13829;48.990;8.346;2023-11-21T14:41:28;7.57;;;5.50;;
5054;SDS011;13829;48.990;8.346;2023-11-21T14:43:54;5.13;;;4.63;;
5054;SDS011;13829;48.990;8.346;2023-11-21T14:46:22;5.67;;;4.73;;
5054;SDS011;13829;48.990;8.346;2023-11-21T14:48:50;5.23;;;4.70;;
5054;SDS011;13829;48.990;8.346;2023-11-21T14:51:25;7.10;;;4.93;;
5054;SDS011;13829;48.990;8.346;2023-11-21T14:53:52;6.83;;;5.27;;
5054;SDS011;13829;48.990;8.346;2023-11-21T14:56:19;6.67;;;4.80;;
5054;SDS011;13829;48.990;8.346;2023-11-21T14:58:53;4.73;;;4.33;;
5054;SDS011;13829;48.990;8.346;2023-11-21T15:01:22;6.27;;;4.47;;
5054;SDS011;13829;48.990;8.346;2023-11-21T15:04:05;8.00;;;4.37;;
5054;SDS011;13829;48.990;8.346;2023-11-21T15:06:32;5.83;;;5.10;;
5054;SDS011;13829;48.990;8.346;2023-11-21T15:08:58;6.37;;;5.00;;
5054;SDS011;13829;48.990;8.346;2023-11-21T15:11:54;6.80;;;5.27;;
5054;SDS011;13829;48.990;8.346;2023-11-21T15:14:26;6.60;;;5.07;;
5054;SDS011;13829;48.990;8.346;2023-11-21T15:16:56;5.07;;;4.10;;